Time;durP1;ratioP1;P1;durP2;ratioP2;P2;SDS_P1;SDS_P2;PMS_P1;PMS_P2;Temp;Humidity;BMP_temperature;BMP_pressure;BME280_temperature;BME280_humidity;BME280_pressure;Samples;Min_cycle;Max_cycle;Signal;HPM_P1;HPM_P2
2021/03/14 00:01:07;;;;;;;4.80;2.15;;;;;;;2.78;82.63;97124.72;1744252;79;21148;-73
2021/03/14 00:03:36;;;;;;;6.17;2.50;;;;;;;2.81;82.66;97129.70;1744670;79;21298;-73
2021/03/14 00:06:26;;;;;;;4.67;2.50;;;;;;;2.86;82.70;97123.83;1748026;79;21681;-72
2021/03/14 00:08:56;;;;;;;5.17;2.10;;;;;;;2.87;82.65;97131.91;1692544;83;21247;-73
2021/03/14 00:11:24;;;;;;;4.65;2.02;;;;;;;2.90;82.67;97124.00;1711224;81;21254;-72
2021/03/14 00:13:52;;;;;;;;;;;;;;;2.93;82.62;97111.87;1695917;81;21310;-73
2021/03/14 00:16:19;;;;;;;3.83;2.20;;;;;;;2.93;82.55;97119.59;1705041;82;22904;-73
2021/03/14 00:18:47;;;;;;;3.45;1.87;;;;;;;2.90;82.48;97109.83;1681985;83;21203;-73
2021/03/14 00:21:18;;;;;;;4.12;2.08;;;;;;;2.88;82.53;97118.09;1694986;83;21614;-73
2021/03/14 00:23:45;;;;;;;6.65;2.35;;;;;;;2.86;82.59;97114.80;1688599;82;21657;-73
2021/03/14 00:28:00;;;;;;;5.03;1.77;;;;;;;2.90;82.59;97108.54;1799117;78;22807;-72
2021/03/14 00:30:28;;;;;;;4.95;2.20;;;;;;;2.87;82.60;97111.30;1761840;80;20993;-71
2021/03/14 00:32:57;;;;;;;;;;;;;;;2.86;82.57;97108.83;1766486;79;21391;-72
2021/03/14 00:35:25;;;;;;;6.95;2.55;;;;;;;2.83;82.60;97104.67;1768674;80;20189;-72
2021/03/14 00:37:53;;;;;;;6.70;2.72;;;;;;;2.80;82.55;97106.58;1769806;80;21218;-72
2021/03/14 00:40:25;;;;;;;3.83;1.67;;;;;;;2.77;82.55;97115.31;1765814;80;21062;-71
2021/03/14 00:42:59;;;;;;;3.67;2.08;;;;;;;2.75;82.59;97112.02;1764242;80;21037;-73
2021/03/14 00:45:28;;;;;;;4.03;1.70;;;;;;;2.74;82.59;97101.78;1769093;80;21214;-73
2021/03/14 00:47:56;;;;;;;2.22;1.80;;;;;;;2.75;82.70;97099.13;1767257;80;21118;-73
2021/03/14 00:50:23;;;;;;;4.25;1.82;;;;;;;2.75;82.68;97099.13;1717913;81;21009;-73
2021/03/14 00:52:51;;;;;;;3.55;1.90;;;;;;;2.76;82.65;97098.67;1718185;81;21021;-73
2021/03/14 00:55:19;;;;;;;3.17;1.95;;;;;;;2.75;82.59;97091.41;1718291;82;21218;-73
2021/03/14 00:57:48;;;;;;;5.03;2.47;;;;;;;2.74;82.65;97097.45;1718665;82;21429;-72
2021/03/14 01:00:17;;;;;;;3.58;1.70;;;;;;;2.74;82.69;97101.32;1723421;82;21613;-72
2021/03/14 01:02:44;;;;;;;3.72;1.90;;;;;;;2.77;82.74;97094.70;1697938;83;21186;-73
2021/03/14 01:05:12;;;;;;;4.00;1.87;;;;;;;2.78;82.74;97098.95;1708870;83;21130;-73
2021/03/14 01:07:40;;;;;;;4.33;2.10;;;;;;;2.81;82.75;97096.20;1727382;81;21191;-73
2021/03/14 01:10:10;;;;;;;9.58;3.30;;;;;;;2.83;82.71;97098.67;1732228;81;21650;-72
2021/03/14 01:12:39;;;;;;;3.67;2.35;;;;;;;2.83;82.70;97104.67;1732474;81;21603;-72
2021/03/14 01:15:11;;;;;;;7.17;2.27;;;;;;;2.83;82.74;97100.81;1709281;81;21001;-73
2021/03/14 01:17:39;;;;;;;2.33;1.57;;;;;;;2.83;82.72;97091.79;1733747;81;21037;-73
2021/03/14 01:20:12;;;;;;;2.55;1.67;;;;;;;2.86;82.74;97092.90;1730228;82;21756;-73
2021/03/14 01:22:40;;;;;;;2.75;1.80;;;;;;;2.87;82.77;97094.55;1718760;82;21316;-73
2021/03/14 01:25:12;;;;;;;3.05;1.87;;;;;;;2.88;82.72;97092.33;1718799;81;21254;-73
2021/03/14 01:27:47;;;;;;;3.12;1.67;;;;;;;2.89;82.71;97094.01;1703993;83;21215;-73
2021/03/14 01:30:19;;;;;;;3.87;1.82;;;;;;;2.90;82.72;97085.34;1709023;82;21074;-72
2021/03/14 01:32:47;;;;;;;2.47;1.92;;;;;;;2.91;82.71;97086.17;1712543;83;21053;-73
2021/03/14 01:35:16;;;;;;;4.83;2.10;;;;;;;2.91;82.71;97089.59;1718810;83;21774;-73
2021/03/14 01:37:45;;;;;;;3.47;1.98;;;;;;;2.94;82.70;97087.73;1709510;81;21281;-73
2021/03/14 01:40:16;;;;;;;3.17;1.75;;;;;;;2.95;82.70;97087.66;1737957;81;21250;-73
2021/03/14 01:42:44;;;;;;;3.20;1.95;;;;;;;2.95;82.69;97081.69;1730887;81;21215;-72
2021/03/14 01:45:14;;;;;;;3.25;1.75;;;;;;;2.95;82.67;97080.39;1726891;81;21171;-73
2021/03/14 01:47:47;;;;;;;3.33;2.00;;;;;;;2.95;82.67;97076.53;1728937;81;22120;-73
2021/03/14 01:50:24;;;;;;;3.70;1.80;;;;;;;2.96;82.67;97075.59;1719354;81;21117;-72
2021/03/14 01:52:53;;;;;;;;;;;;;;;2.95;82.67;97072.66;1717840;83;21194;-72
2021/03/14 01:55:24;;;;;;;3.77;1.75;;;;;;;2.97;82.69;97074.67;1708003;83;20566;-73
2021/03/14 01:57:52;;;;;;;3.95;1.72;;;;;;;2.97;82.66;97070.37;1707258;83;21747;-73
2021/03/14 02:00:26;;;;;;;3.77;1.40;;;;;;;2.98;82.65;97058.30;1712476;83;22584;-73
2021/03/14 02:02:53;;;;;;;4.87;1.70;;;;;;;2.97;82.63;97056.63;1733873;81;21724;-73
2021/03/14 02:05:22;;;;;;;3.20;1.67;;;;;;;2.96;82.59;97048.53;1731863;81;28985;-73
2021/03/14 02:07:53;;;;;;;3.85;1.70;;;;;;;2.96;82.63;97047.25;1730699;81;21163;-73
2021/03/14 02:10:27;;;;;;;3.37;1.90;;;;;;;2.96;82.64;97054.98;1729659;81;21207;-73
2021/03/14 02:13:23;;;;;;;3.45;1.80;;;;;;;3.00;82.63;97046.16;1809602;77;28183;-72
2021/03/14 02:16:05;;;;;;;3.00;1.80;;;;;;;3.02;82.51;97050.28;1795984;78;21609;-73
2021/03/14 02:18:38;;;;;;;4.55;1.50;;;;;;;3.02;82.47;97041.72;1751375;80;21154;-70
2021/03/14 02:21:06;;;;;;;3.22;1.90;;;;;;;3.04;82.52;97042.00;1745930;81;21588;-73
2021/03/14 02:23:55;;;;;;;4.03;2.05;;;;;;;3.04;82.52;97045.05;1718846;80;20956;-73
2021/03/14 02:26:30;;;;;;;2.95;1.55;;;;;;;3.02;82.49;97044.30;1764635;80;21138;-73
2021/03/14 02:28:57;;;;;;;4.20;1.90;;;;;;;3.00;82.55;97041.01;1766063;80;21016;-73
2021/03/14 02:31:26;;;;;;;3.47;1.92;;;;;;;2.99;82.56;97037.58;1734787;80;26119;-73
2021/03/14 02:34:07;;;;;;;2.30;1.50;;;;;;;2.99;82.51;97031.59;1745378;81;21062;-73
2021/03/14 02:36:39;;;;;;;3.27;1.67;;;;;;;2.98;82.51;97029.95;1717874;81;21214;-74
2021/03/14 02:39:13;;;;;;;3.80;1.95;;;;;;;2.95;82.53;97036.11;1744410;81;21275;-74
2021/03/14 02:41:42;;;;;;;2.45;1.80;;;;;;;2.94;82.55;97033.61;1749682;81;21155;-73
2021/03/14 02:44:13;;;;;;;2.72;1.85;;;;;;;2.93;82.54;97038.41;1748313;79;21320;-73
2021/03/14 02:46:44;;;;;;;4.00;1.85;;;;;;;2.90;82.53;97031.22;1749371;81;21255;-73
2021/03/14 02:49:21;;;;;;;5.30;2.12;;;;;;;2.88;82.55;97038.20;1749032;81;21178;-73
2021/03/14 02:51:51;;;;;;;4.42;2.25;;;;;;;2.88;82.56;97038.20;1716884;81;21207;-73
2021/03/14 02:54:20;;;;;;;3.22;2.00;;;;;;;2.88;82.59;97033.05;1752324;81;21622;-73
2021/03/14 02:56:49;;;;;;;2.85;1.80;;;;;;;2.87;82.59;97035.27;1723336;81;21322;-73
2021/03/14 02:59:20;;;;;;;2.80;2.02;;;;;;;2.89;82.61;97037.30;1722104;81;21084;-72
2021/03/14 03:01:50;;;;;;;3.90;1.87;;;;;;;2.89;82.60;97037.30;1746829;81;21428;-72
2021/03/14 03:04:24;;;;;;;4.60;2.27;;;;;;;2.89;82.53;97032.15;1744863;81;21630;-73
2021/03/14 03:08:20;;;;;;;2.25;1.70;;;;;;;2.94;82.56;97028.45;1824801;77;23203;-72
2021/03/14 03:10:52;;;;;;;2.98;1.70;;;;;;;2.89;82.57;97036.48;1800656;78;21050;-72
2021/03/14 03:13:27;;;;;;;3.50;1.90;;;;;;;2.87;82.58;97036.56;1797839;78;21194;-70
2021/03/14 03:15:57;;;;;;;3.90;1.60;;;;;;;2.87;82.58;97033.16;1796048;78;21253;-72
2021/03/14 03:18:25;;;;;;;4.28;2.00;;;;;;;2.84;82.56;97025.14;1804029;78;21072;-71
2021/03/14 03:20:56;;;;;;;3.92;1.90;;;;;;;2.82;82.59;97033.42;1794930;78;21026;-72
2021/03/14 03:23:23;;;;;;;3.25;2.10;;;;;;;2.80;82.62;97024.97;1805116;78;21025;-72
2021/03/14 03:25:50;;;;;;;5.67;2.35;;;;;;;2.78;82.61;97014.38;1799425;78;22174;-73
2021/03/14 03:28:18;;;;;;;6.17;1.90;;;;;;;2.75;82.58;97024.41;1800372;78;21001;-71
2021/03/14 03:30:46;;;;;;;3.85;1.80;;;;;;;2.73;82.59;97014.64;1809876;78;24737;-72
2021/03/14 03:33:13;;;;;;;4.42;2.10;;;;;;;2.74;82.65;97014.17;1807297;78;21116;-73
2021/03/14 03:35:41;;;;;;;2.98;1.70;;;;;;;2.73;82.63;97013.35;1797796;78;26692;-72
2021/03/14 03:38:42;;;;;;;3.85;1.72;;;;;;;2.76;82.65;97017.50;1765430;79;22829;-71
2021/03/14 03:41:13;;;;;;;2.72;1.65;;;;;;;2.70;82.68;97005.81;1747873;80;21262;-72
2021/03/14 03:43:43;;;;;;;6.97;1.92;;;;;;;2.71;82.68;97008.74;1743065;80;21202;-72
2021/03/14 03:47:48;;;;;;;2.50;1.27;;;;;;;2.72;82.68;97003.98;1862994;74;22732;-71
2021/03/14 03:50:15;;;;;;;;;;;;;;;2.65;82.69;97007.82;1837412;77;21055;-72
2021/03/14 03:52:46;;;;;;;3.75;1.77;;;;;;;2.65;82.72;97010.40;1814922;77;21607;-72
2021/03/14 03:55:15;;;;;;;3.20;1.50;;;;;;;2.64;82.73;97016.48;1832738;77;21031;-71
2021/03/14 03:57:43;;;;;;;5.45;2.05;;;;;;;2.62;82.71;97013.16;1812818;77;21574;-72
2021/03/14 04:00:18;;;;;;;2.45;1.65;;;;;;;2.62;82.72;97006.25;1836053;77;21001;-72
2021/03/14 04:02:48;;;;;;;2.35;1.52;;;;;;;2.62;82.74;97008.00;1838938;77;21553;-72
2021/03/14 04:05:17;;;;;;;4.53;2.00;;;;;;;2.63;82.76;97012.22;1836725;77;21159;-72
2021/03/14 04:07:49;;;;;;;3.90;1.72;;;;;;;2.62;82.77;97015.73;1827827;77;21079;-72
2021/03/14 04:10:25;;;;;;;1.92;1.30;;;;;;;2.61;82.82;97011.51;1834193;77;22191;-72
2021/03/14 04:12:54;;;;;;;3.62;1.62;;;;;;;2.60;82.76;97012.41;1834163;77;21164;-71
2021/03/14 04:15:25;;;;;;;2.37;1.37;;;;;;;2.60;82.76;96999.53;1806162;77;21206;-72
2021/03/14 04:17:55;;;;;;;5.17;1.50;;;;;;;2.58;82.79;97006.54;1830744;77;21138;-71
2021/03/14 04:20:29;;;;;;;1.87;1.17;;;;;;;2.56;82.76;96998.06;1836047;77;21151;-72
2021/03/14 04:23:01;;;;;;;2.37;1.62;;;;;;;2.54;82.84;96992.16;1836239;76;20980;-72
2021/03/14 04:25:33;;;;;;;3.37;1.60;;;;;;;2.52;82.85;96990.13;1832055;77;21084;-73
2021/03/14 04:28:05;;;;;;;5.03;1.70;;;;;;;2.51;82.86;96988.48;1838690;77;21210;-72
2021/03/14 04:30:36;;;;;;;5.12;1.50;;;;;;;2.50;82.87;96985.55;1837741;77;21056;-72
2021/03/14 04:33:05;;;;;;;2.33;1.27;;;;;;;2.48;82.87;96982.23;1832956;77;21190;-72
2021/03/14 04:35:39;;;;;;;5.45;1.87;;;;;;;2.44;82.96;96977.26;1839503;77;21132;-72
2021/03/14 04:38:07;;;;;;;4.90;1.92;;;;;;;2.43;82.88;96971.72;1830186;77;21061;-72
2021/03/14 04:40:36;;;;;;;4.37;2.08;;;;;;;2.41;82.97;96974.86;1834334;77;21213;-72
2021/03/14 04:43:07;;;;;;;4.25;2.08;;;;;;;2.38;82.93;96969.89;1796766;78;21193;-72
2021/03/14 04:45:35;;;;;;;4.28;2.25;;;;;;;2.38;83.05;96969.89;1770277;80;21223;-72
2021/03/14 04:48:04;;;;;;;4.08;1.87;;;;;;;2.38;83.07;96973.76;1783580;78;21107;-72
2021/03/14 04:50:54;;;;;;;4.65;2.08;;;;;;;2.37;83.02;96968.22;1774053;80;21479;-72
2021/03/14 04:53:25;;;;;;;6.00;2.62;;;;;;;2.37;83.06;96960.48;1717182;83;21216;-70
2021/03/14 04:55:54;;;;;;;7.37;2.10;;;;;;;2.35;83.05;96972.65;1724021;82;22718;-71
2021/03/14 04:58:24;;;;;;;5.15;2.27;;;;;;;2.33;83.07;96961.60;1716918;82;21177;-73
2021/03/14 05:00:55;;;;;;;3.70;2.45;;;;;;;2.33;83.14;96969.33;1722324;82;21032;-73
2021/03/14 05:03:24;;;;;;;3.95;1.65;;;;;;;2.32;83.10;96970.22;1721267;82;21111;-72
2021/03/14 05:05:56;;;;;;;2.33;1.05;;;;;;;2.32;83.13;96964.25;1720769;82;21176;-72
2021/03/14 05:08:26;;;;;;;4.78;1.70;;;;;;;2.32;83.16;96959.92;1718549;82;22257;-72
2021/03/14 05:10:57;;;;;;;2.17;1.20;;;;;;;2.31;83.19;96951.84;1725635;82;21624;-72
2021/03/14 05:13:26;;;;;;;4.78;1.50;;;;;;;2.30;83.31;96954.06;1721199;82;21209;-72
2021/03/14 05:15:55;;;;;;;2.05;1.60;;;;;;;2.29;83.25;96947.23;1721238;81;21253;-73
2021/03/14 05:18:23;;;;;;;3.42;2.22;;;;;;;2.28;83.18;96961.03;1719714;81;21174;-73
2021/03/14 05:20:51;;;;;;;3.02;1.47;;;;;;;2.28;83.27;96953.31;1749820;80;21227;-73
2021/03/14 05:23:19;;;;;;;1.72;1.10;;;;;;;2.26;83.23;96955.14;1708006;83;21256;-73
2021/03/14 05:26:08;;;;;;;3.30;1.90;;;;;;;2.26;83.26;96957.71;1712159;83;21155;-72
2021/03/14 05:30:34;;;;;;;2.70;1.70;;;;;;;2.28;83.29;96954.59;1793042;77;22490;-72
2021/03/14 05:33:04;;;;;;;4.22;1.50;;;;;;;2.22;83.28;96963.97;1769032;80;21017;-73
2021/03/14 05:35:32;;;;;;;4.25;1.30;;;;;;;2.21;83.29;96952.00;1768569;79;21043;-71
2021/03/14 05:38:01;;;;;;;3.20;1.37;;;;;;;2.21;83.35;96962.30;1735616;80;21234;-72
2021/03/14 05:40:30;;;;;;;4.15;1.37;;;;;;;2.22;83.37;96975.09;1775018;80;21205;-72
2021/03/14 05:42:59;;;;;;;4.08;2.20;;;;;;;2.22;83.38;96962.22;1769852;80;21133;-73
2021/03/14 05:45:26;;;;;;;4.10;1.40;;;;;;;2.22;83.39;96963.97;1772876;80;21594;-73
2021/03/14 05:47:54;;;;;;;2.85;1.60;;;;;;;2.24;83.37;96964.69;1773816;79;21279;-73
2021/03/14 05:50:28;;;;;;;3.37;1.80;;;;;;;2.23;83.38;96969.48;1773162;80;22732;-72
2021/03/14 05:52:59;;;;;;;2.30;1.25;;;;;;;2.20;83.32;96973.52;1768565;80;21058;-72
2021/03/14 05:55:27;;;;;;;3.10;1.50;;;;;;;2.19;83.41;96973.98;1768607;79;21206;-72
2021/03/14 05:57:56;;;;;;;6.03;1.60;;;;;;;2.18;83.42;96965.05;1768800;80;21830;-72
2021/03/14 06:00:34;;;;;;;3.17;1.62;;;;;;;2.18;83.43;96970.20;1767115;80;21415;-72
2021/03/14 06:03:09;;;;;;;2.77;1.72;;;;;;;2.17;83.40;96976.27;1776839;79;21597;-72
2021/03/14 06:05:32;;;;;;;2.98;1.50;;;;;;;2.15;83.41;96972.95;1772225;80;21194;-73
2021/03/14 06:08:00;;;;;;;2.42;1.50;;;;;;;2.14;83.43;96976.45;1774461;80;21211;-72
2021/03/14 06:10:27;;;;;;;1.52;1.37;;;;;;;2.14;83.49;96976.45;1772322;80;21625;-71
2021/03/14 06:12:54;;;;;;;2.35;1.37;;;;;;;2.13;83.53;96969.63;1765123;80;21203;-72
2021/03/14 06:15:22;;;;;;;3.40;1.57;;;;;;;2.12;83.50;96969.27;1770761;80;21003;-73
2021/03/14 06:17:49;;;;;;;2.65;1.20;;;;;;;2.11;83.54;96974.87;1771266;80;21184;-73
2021/03/14 06:20:41;;;;;;;2.25;1.57;;;;;;;2.12;83.56;96967.98;1766605;79;21550;-72
2021/03/14 06:23:15;;;;;;;3.75;1.80;;;;;;;2.14;83.63;96976.45;1765895;80;21351;-72
2021/03/14 06:25:49;;;;;;;3.77;1.75;;;;;;;2.15;83.63;96972.95;1768451;80;21405;-72
2021/03/14 06:28:17;;;;;;;1.80;1.40;;;;;;;2.17;83.72;96973.70;1771705;79;21348;-72
2021/03/14 06:30:44;;;;;;;2.30;1.40;;;;;;;2.22;83.76;96967.83;1736565;81;21072;-73
2021/03/14 06:33:18;;;;;;;1.75;1.20;;;;;;;2.28;83.75;96971.33;1753289;79;21208;-72
2021/03/14 06:35:50;;;;;;;3.77;1.75;;;;;;;2.34;83.67;96973.55;1751824;81;21207;-72
2021/03/14 06:38:28;;;;;;;1.70;1.22;;;;;;;2.39;83.73;96975.41;1754294;81;21173;-71
2021/03/14 06:41:06;;;;;;;2.27;1.70;;;;;;;2.49;83.74;96974.86;1750906;81;21268;-72
2021/03/14 06:43:41;;;;;;;2.12;1.40;;;;;;;2.58;83.73;96973.05;1748514;80;22119;-71
2021/03/14 06:46:47;;;;;;;4.62;1.60;;;;;;;2.61;83.52;96984.46;1746515;80;21024;-71
2021/03/14 06:49:19;;;;;;;5.15;1.80;;;;;;;2.57;83.40;96978.64;1685877;84;21262;-72
2021/03/14 06:51:56;;;;;;;2.75;1.62;;;;;;;2.56;83.55;96982.61;1685642;84;21389;-72
2021/03/14 06:54:41;;;;;;;2.15;1.55;;;;;;;2.64;83.66;96986.85;1827108;76;22167;-72
2021/03/14 06:57:15;;;;;;;1.82;1.60;;;;;;;2.65;83.65;96988.03;1771866;79;20996;-72
2021/03/14 06:59:58;;;;;;;4.53;1.65;;;;;;;2.72;83.60;96982.52;1773733;79;21188;-71
2021/03/14 07:02:28;;;;;;;2.12;1.55;;;;;;;2.73;83.59;96987.59;1778668;78;21625;-73
2021/03/14 07:04:58;;;;;;;3.72;1.62;;;;;;;2.75;83.53;96984.47;1772178;79;21588;-72
2021/03/14 07:07:33;;;;;;;2.08;1.42;;;;;;;2.75;83.49;96989.63;1773138;79;21615;-73
2021/03/14 07:10:15;;;;;;;1.50;1.40;;;;;;;2.78;83.61;96985.57;1751080;79;20995;-72
2021/03/14 07:12:47;;;;;;;2.17;1.42;;;;;;;2.84;83.58;96992.94;1768540;79;21474;-73
2021/03/14 07:15:19;;;;;;;1.70;1.12;;;;;;;2.83;83.51;96988.71;1729844;81;21088;-73
2021/03/14 07:17:56;;;;;;;3.00;1.52;;;;;;;2.87;83.55;96981.62;1719242;81;21108;-73
2021/03/14 07:20:26;;;;;;;;;;;;;;;2.90;83.70;96984.83;1722726;81;21108;-73
2021/03/14 07:23:06;;;;;;;3.45;1.35;;;;;;;3.01;83.74;96985.94;1724843;81;20288;-73
2021/03/14 07:25:43;;;;;;;5.50;1.67;;;;;;;3.05;83.52;96986.11;1718973;81;21429;-72
2021/03/14 07:28:12;;;;;;;2.07;1.53;;;;;;;3.08;83.58;96989.79;1722540;81;22064;-72
2021/03/14 07:30:40;;;;;;;5.53;1.40;;;;;;;3.11;83.42;96984.47;1722411;81;21032;-72
2021/03/14 07:33:10;;;;;;;3.85;1.87;;;;;;;3.09;83.47;96985.02;1726080;81;21112;-72
2021/03/14 07:35:39;;;;;;;1.57;1.37;;;;;;;3.17;83.75;96998.27;1717585;81;21135;-72
2021/03/14 07:38:06;;;;;;;1.95;1.30;;;;;;;3.36;83.82;96994.94;1719028;81;21248;-71
2021/03/14 07:40:33;;;;;;;2.17;1.62;;;;;;;3.51;83.61;96997.48;1717761;81;21238;-72
2021/03/14 07:43:01;;;;;;;4.05;1.85;;;;;;;3.59;83.51;96990.10;1720953;81;21707;-72
2021/03/14 07:45:31;;;;;;;2.75;1.57;;;;;;;3.62;83.26;96992.48;1717049;81;21625;-71
2021/03/14 07:48:00;;;;;;;4.22;2.12;;;;;;;3.61;83.25;96992.10;1721183;81;21693;-72
2021/03/14 07:50:34;;;;;;;1.90;1.22;;;;;;;3.59;83.20;96995.27;1717682;81;21663;-72
2021/03/14 07:53:10;;;;;;;4.97;1.95;;;;;;;3.52;83.09;96991.39;1720257;81;21189;-72
2021/03/14 07:55:39;;;;;;;2.72;1.80;;;;;;;3.41;82.99;96997.69;1733091;81;21186;-72
2021/03/14 07:58:10;;;;;;;2.08;1.40;;;;;;;3.29;83.09;97001.38;1705860;82;21216;-72
2021/03/14 08:00:39;;;;;;;1.77;1.62;;;;;;;3.23;83.18;97004.34;1709918;82;21733;-74
2021/03/14 08:03:09;;;;;;;1.35;1.22;;;;;;;3.21;83.32;97003.60;1701733;82;21218;-70
2021/03/14 08:05:45;;;;;;;1.72;1.37;;;;;;;3.20;83.40;97009.69;1704236;82;21201;-73
2021/03/14 08:08:30;;;;;;;2.70;1.45;;;;;;;3.16;83.24;97009.49;1705482;82;21208;-74
2021/03/14 08:10:57;;;;;;;1.90;1.40;;;;;;;3.12;83.39;97012.72;1703140;82;21698;-73
2021/03/14 08:13:35;;;;;;;2.72;1.62;;;;;;;3.14;83.51;97013.94;1718729;81;21197;-71
2021/03/14 08:16:09;;;;;;;2.42;1.75;;;;;;;3.18;83.47;97017.97;1719865;81;22165;-73
2021/03/14 08:18:41;;;;;;;2.77;1.50;;;;;;;3.18;83.41;97016.68;1720075;81;21225;-73
2021/03/14 08:21:28;;;;;;;6.80;4.53;;;;;;;3.16;83.38;97031.41;1705085;82;21189;-74
2021/03/14 08:23:58;;;;;;;6.03;3.85;;;;;;;3.21;83.55;97033.25;1728693;80;21117;-73
2021/03/14 08:26:34;;;;;;;4.03;2.90;;;;;;;3.26;83.32;97024.78;1695823;82;21146;-74
2021/03/14 08:29:12;;;;;;;5.20;3.17;;;;;;;3.20;83.32;97032.90;1732015;81;21186;-72
2021/03/14 08:31:44;;;;;;;2.50;1.50;;;;;;;3.23;83.33;97038.33;1734196;81;21179;-74
2021/03/14 08:34:31;;;;;;;3.77;1.85;;;;;;;3.31;83.41;97043.39;1713170;82;21050;-75
2021/03/14 08:37:23;;;;;;;0.90;0.78;;;;;;;3.31;83.20;97057.58;1736283;81;21218;-75
2021/03/14 08:40:00;;;;;;;2.15;1.20;;;;;;;3.30;83.20;97055.08;1649878;84;21241;-73
2021/03/14 08:42:54;;;;;;;1.15;1.02;;;;;;;3.34;83.49;97065.59;1627711;86;22415;-73
2021/03/14 08:45:26;;;;;;;1.10;0.80;;;;;;;3.44;83.40;97065.84;1628629;86;21263;-73
2021/03/14 08:47:54;;;;;;;1.70;1.00;;;;;;;3.43;83.04;97066.78;1628782;86;21313;-73
2021/03/14 08:50:21;;;;;;;1.22;0.80;;;;;;;3.38;83.13;97070.09;1617052;88;21256;-73
2021/03/14 08:52:48;;;;;;;0.45;0.40;;;;;;;3.38;83.11;97072.67;1634128;86;21248;-73
2021/03/14 08:55:15;;;;;;;0.50;0.50;;;;;;;3.40;83.27;97087.61;1607754;88;21251;-74
2021/03/14 08:57:42;;;;;;;0.40;0.40;;;;;;;3.46;83.18;97085.47;1634757;85;21187;-73
2021/03/14 09:00:14;;;;;;;1.35;0.80;;;;;;;3.42;82.97;97096.05;1634106;86;21694;-73
2021/03/14 09:02:41;;;;;;;1.82;0.75;;;;;;;3.40;82.97;97104.37;1614292;87;21389;-74
2021/03/14 09:05:19;;;;;;;0.70;0.60;;;;;;;3.49;83.22;97105.09;1634992;85;21204;-74
2021/03/14 09:07:59;;;;;;;0.88;0.65;;;;;;;3.62;83.28;97121.50;1636159;86;21304;-74
2021/03/14 09:10:34;;;;;;;1.05;0.93;;;;;;;3.74;83.17;97116.88;1631752;86;21251;-73
2021/03/14 09:13:05;;;;;;;1.12;0.75;;;;;;;3.84;83.09;97117.59;1635865;86;21235;-72
2021/03/14 09:15:34;;;;;;;1.05;0.68;;;;;;;3.85;82.89;97130.88;1632379;86;21104;-73
2021/03/14 09:18:03;;;;;;;2.40;1.37;;;;;;;3.89;82.91;97138.79;1612624;87;21216;-72
2021/03/14 09:20:31;;;;;;;1.98;1.12;;;;;;;3.89;82.96;97137.03;1626600;86;22214;-73
2021/03/14 09:23:07;;;;;;;1.37;0.78;;;;;;;3.94;82.96;97139.34;1659615;84;21711;-73
2021/03/14 09:25:36;;;;;;;1.37;0.72;;;;;;;3.93;82.68;97137.70;1664203;84;21163;-73
2021/03/14 09:30:46;;;;;;;1.10;0.90;;;;;;;3.98;82.61;97162.30;1772147;78;22772;-72
2021/03/14 09:36:50;;;;;;;1.95;0.90;;;;;;;3.84;82.30;97166.63;1840250;75;22945;-72
2021/03/14 09:39:25;;;;;;;1.65;1.00;;;;;;;3.59;82.32;97186.20;1812004;77;21093;-72
2021/03/14 09:41:52;;;;;;;1.47;0.93;;;;;;;3.40;82.34;97184.33;1813407;77;21224;-72
2021/03/14 09:44:20;;;;;;;1.00;0.60;;;;;;;3.19;82.41;97200.58;1750928;80;21067;-72
2021/03/14 09:46:59;;;;;;;1.00;0.90;;;;;;;3.08;82.53;97198.61;1750540;80;21142;-72
2021/03/14 09:49:29;;;;;;;0.78;0.60;;;;;;;2.96;82.64;97196.75;1750354;80;21585;-73
2021/03/14 09:53:41;;;;;;;0.88;0.60;;;;;;;2.90;82.69;97201.33;1831823;76;22770;-72
2021/03/14 09:56:13;;;;;;;0.65;0.50;;;;;;;2.83;82.78;97210.34;1797920;78;21522;-71
2021/03/14 09:58:41;;;;;;;1.07;0.75;;;;;;;2.88;82.92;97204.91;1798248;77;21137;-71
2021/03/14 10:01:09;;;;;;;;;;;;;;;2.91;82.75;97228.78;1799907;78;21771;-72
2021/03/14 10:03:37;;;;;;;1.37;0.60;;;;;;;2.91;82.63;97235.22;1800580;77;20236;-73
2021/03/14 10:06:06;;;;;;;;;;;;;;;2.85;82.38;97243.73;1803713;78;21068;-73
2021/03/14 10:08:39;;;;;;;1.62;0.90;;;;;;;2.77;82.43;97257.04;1806033;78;20202;-71
2021/03/14 10:11:13;;;;;;;1.47;1.00;;;;;;;2.69;82.41;97255.37;1809695;78;21214;-73
2021/03/14 10:13:44;;;;;;;1.35;0.70;;;;;;;2.62;82.53;97269.48;1809161;78;21202;-73
2021/03/14 10:16:16;;;;;;;1.05;0.70;;;;;;;2.59;82.62;97270.94;1805368;77;21080;-73
2021/03/14 10:18:44;;;;;;;1.30;0.80;;;;;;;2.58;82.72;97282.17;1797698;78;21095;-73
2021/03/14 10:21:23;;;;;;;1.70;0.80;;;;;;;2.69;82.93;97278.56;1806246;78;21139;-73
2021/03/14 10:23:53;;;;;;;0.55;0.50;;;;;;;2.89;83.17;97288.59;1801153;77;21367;-73
2021/03/14 10:26:22;;;;;;;0.95;0.30;;;;;;;3.17;83.29;97297.38;1803199;78;21339;-72
2021/03/14 10:29:44;;;;;;;0.65;0.33;;;;;;;3.62;83.13;97293.09;1794301;78;22844;-72
2021/03/14 10:32:19;;;;;;;1.92;0.80;;;;;;;3.76;82.75;97304.73;1746006;80;21056;-73
2021/03/14 10:34:51;;;;;;;0.57;0.30;;;;;;;3.92;82.76;97294.78;1768977;80;22165;-73
2021/03/14 10:37:32;;;;;;;1.07;0.60;;;;;;;3.93;82.29;97311.49;1775394;79;21285;-72
2021/03/14 10:40:35;;;;;;;1.72;0.82;;;;;;;3.98;82.62;97306.07;1766250;80;21693;-73
2021/03/14 10:43:25;;;;;;;0.50;0.47;;;;;;;3.99;82.36;97318.05;1771722;80;21219;-71
2021/03/14 10:45:54;;;;;;;0.70;0.50;;;;;;;4.00;82.55;97322.28;1771412;79;20968;-73
2021/03/14 10:48:29;;;;;;;0.75;0.30;;;;;;;3.89;82.17;97334.98;1726948;81;22147;-73
2021/03/14 10:51:05;;;;;;;0.50;0.40;;;;;;;3.84;82.34;97342.16;1738209;81;21245;-72
2021/03/14 10:53:33;;;;;;;0.72;0.40;;;;;;;3.81;82.53;97340.62;1726480;81;21075;-72
2021/03/14 10:56:08;;;;;;;0.95;0.55;;;;;;;3.83;82.65;97341.80;1726866;81;21207;-72
2021/03/14 10:58:42;;;;;;;1.85;0.60;;;;;;;3.90;82.80;97361.19;1694806;82;21243;-72
2021/03/14 11:03:48;;;;;;;0.60;0.50;;;;;;;3.88;82.30;97366.89;1797243;77;22814;-70
2021/03/14 11:07:34;;;;;;;0.40;0.30;;;;;;;3.73;82.44;97379.77;1831320;77;22754;-70
2021/03/14 11:10:57;;;;;;;0.80;0.60;;;;;;;3.68;82.52;97395.14;1765649;75;22014;-71
2021/03/14 11:13:25;;;;;;;1.32;0.50;;;;;;;3.61;82.71;97398.50;1773173;79;21177;-70
2021/03/14 11:16:08;;;;;;;0.85;0.50;;;;;;;3.60;82.52;97420.08;1779210;80;27149;-71
2021/03/14 11:18:36;;;;;;;1.05;0.45;;;;;;;3.53;82.60;97432.96;1774403;80;21238;-72
2021/03/14 11:21:06;;;;;;;1.00;0.53;;;;;;;3.52;82.69;97448.05;1773758;79;20997;-72
2021/03/14 11:23:33;;;;;;;0.65;0.45;;;;;;;3.43;82.49;97443.41;1778315;79;21139;-71
2021/03/14 11:26:01;;;;;;;0.70;0.40;;;;;;;3.44;82.90;97450.22;1771590;79;21100;-72
2021/03/14 11:28:28;;;;;;;2.42;0.70;;;;;;;3.52;82.87;97458.38;1773630;80;22873;-72
2021/03/14 11:30:56;;;;;;;1.27;0.57;;;;;;;3.47;82.71;97456.50;1770613;80;21094;-71
2021/03/14 11:33:24;;;;;;;2.47;0.75;;;;;;;3.41;82.60;97471.02;1720256;81;21808;-72
2021/03/14 11:35:51;;;;;;;1.98;0.93;;;;;;;3.41;82.83;97485.21;1714192;83;21641;-71
2021/03/14 11:38:19;;;;;;;;;;;;;;;3.41;82.72;97489.91;1715783;83;21207;-71
2021/03/14 11:42:23;;;;;;;0.83;0.60;;;;;;;3.47;82.61;97501.64;1816485;76;37149;-71
2021/03/14 11:44:51;;;;;;;1.37;0.55;;;;;;;3.43;82.42;97505.31;1810203;78;20981;-71
2021/03/14 11:47:18;;;;;;;0.50;0.50;;;;;;;3.31;82.41;97515.38;1804869;78;21198;-71
2021/03/14 11:49:45;;;;;;;0.53;0.28;;;;;;;3.22;82.50;97512.44;1805106;78;21714;-71
2021/03/14 11:52:13;;;;;;;0.75;0.57;;;;;;;3.11;82.45;97531.08;1798312;78;21231;-70
2021/03/14 11:54:40;;;;;;;1.20;0.40;;;;;;;3.04;82.63;97545.19;1793276;77;21218;-71
2021/03/14 11:57:11;;;;;;;1.05;0.85;;;;;;;2.96;82.61;97547.32;1803825;78;21077;-71
2021/03/14 11:59:46;;;;;;;1.47;0.80;;;;;;;2.97;82.93;97554.13;1803160;78;21287;-70
2021/03/14 12:02:14;;;;;;;2.05;0.60;;;;;;;3.01;82.91;97568.55;1802118;78;21218;-71
2021/03/14 12:04:44;;;;;;;;;;;;;;;2.88;82.64;97576.88;1803408;78;21728;-70
2021/03/14 12:07:13;;;;;;;0.25;0.25;;;;;;;2.71;82.95;97592.36;1800323;78;21992;-73
2021/03/14 12:09:40;;;;;;;0.20;0.20;;;;;;;2.65;83.08;97595.24;1793362;78;21270;-70
2021/03/14 12:12:08;;;;;;;0.93;0.60;;;;;;;2.58;83.09;97604.20;1802569;77;22019;-69
2021/03/14 12:14:35;;;;;;;;;;;;;;;2.54;83.08;97615.55;1801983;78;21787;-69
2021/03/14 12:17:03;;;;;;;0.60;0.40;;;;;;;2.49;83.10;97622.66;1793523;78;20459;-70
2021/03/14 12:19:30;;;;;;;1.57;0.62;;;;;;;2.36;83.12;97638.70;1797264;78;22265;-69
2021/03/14 12:21:57;;;;;;;0.40;0.33;;;;;;;2.26;83.06;97627.16;1795040;78;21238;-69
2021/03/14 12:24:25;;;;;;;1.12;0.50;;;;;;;2.26;83.18;97641.33;1798541;78;25291;-69
2021/03/14 12:26:53;;;;;;;0.40;0.30;;;;;;;2.13;82.79;97650.52;1799583;78;21196;-70